sensor_id;sensor_type;location;lat;lon;timestamp;P1;durP1;ratioP1;P2;durP2;ratioP2
40591;SDS011;26301;42.832;23.918;2023-10-31T00:02:11;7.22;;;3.40;;
40591;SDS011;26301;42.832;23.918;2023-10-31T00:04:36;7.32;;;3.38;;
40591;SDS011;26301;42.832;23.918;2023-10-31T00:07:02;6.80;;;3.50;;
40591;SDS011;26301;42.832;23.918;2023-10-31T00:09:28;13.02;;;3.97;;
40591;SDS011;26301;42.832;23.918;2023-10-31T00:11:54;7.82;;;4.32;;
40591;SDS011;26301;42.832;23.918;2023-10-31T00:14:19;5.82;;;4.07;;
40591;SDS011;26301;42.832;23.918;2023-10-31T00:16:45;6.43;;;3.35;;
40591;SDS011;26301;42.832;23.918;2023-10-31T00:19:11;5.60;;;3.33;;
40591;SDS011;26301;42.832;23.918;2023-10-31T00:21:37;4.45;;;3.45;;
40591;SDS011;26301;42.832;23.918;2023-10-31T00:24:02;6.78;;;3.67;;
40591;SDS011;26301;42.832;23.918;2023-10-31T00:26:28;5.50;;;3.72;;
40591;SDS011;26301;42.832;23.918;2023-10-31T00:28:54;6.80;;;3.78;;
40591;SDS011;26301;42.832;23.918;2023-10-31T00:31:19;6.72;;;4.18;;
40591;SDS011;26301;42.832;23.918;2023-10-31T00:33:45;9.82;;;3.83;;
40591;SDS011;26301;42.832;23.918;2023-10-31T00:36:11;6.63;;;3.90;;
40591;SDS011;26301;42.832;23.918;2023-10-31T00:38:37;5.70;;;3.38;;
40591;SDS011;26301;42.832;23.918;2023-10-31T00:41:02;6.43;;;3.58;;
40591;SDS011;26301;42.832;23.918;2023-10-31T00:43:28;5.70;;;3.92;;
40591;SDS011;26301;42.832;23.918;2023-10-31T00:45:54;9.50;;;3.80;;
40591;SDS011;26301;42.832;23.918;2023-10-31T00:48:20;6.72;;;3.95;;
40591;SDS011;26301;42.832;23.918;2023-10-31T00:50:46;10.27;;;3.65;;
40591;SDS011;26301;42.832;23.918;2023-10-31T00:53:11;5.13;;;3.08;;
40591;SDS011;26301;42.832;23.918;2023-10-31T00:55:39;7.68;;;4.32;;
40591;SDS011;26301;42.832;23.918;2023-10-31T00:58:05;7.78;;;3.17;;
40591;SDS011;26301;42.832;23.918;2023-10-31T01:00:31;7.45;;;3.67;;
40591;SDS011;26301;42.832;23.918;2023-10-31T01:02:57;5.82;;;3.60;;
40591;SDS011;26301;42.832;23.918;2023-10-31T01:05:22;7.63;;;3.50;;
40591;SDS011;26301;42.832;23.918;2023-10-31T01:07:48;4.85;;;3.20;;
40591;SDS011;26301;42.832;23.918;2023-10-31T01:10:15;8.23;;;3.80;;
40591;SDS011;26301;42.832;23.918;2023-10-31T01:12:41;6.22;;;3.38;;
40591;SDS011;26301;42.832;23.918;2023-10-31T01:15:07;10.07;;;3.60;;
40591;SDS011;26301;42.832;23.918;2023-10-31T01:17:33;6.18;;;3.22;;
40591;SDS011;26301;42.832;23.918;2023-10-31T01:19:58;13.18;;;3.58;;
40591;SDS011;26301;42.832;23.918;2023-10-31T01:22:24;7.95;;;3.50;;
40591;SDS011;26301;42.832;23.918;2023-10-31T01:24:50;9.63;;;4.65;;
40591;SDS011;26301;42.832;23.918;2023-10-31T01:27:15;7.35;;;3.13;;
40591;SDS011;26301;42.832;23.918;2023-10-31T01:29:41;6.95;;;3.08;;
40591;SDS011;26301;42.832;23.918;2023-10-31T01:32:07;6.85;;;3.42;;
40591;SDS011;26301;42.832;23.918;2023-10-31T01:34:33;7.88;;;3.17;;
40591;SDS011;26301;42.832;23.918;2023-10-31T01:36:58;6.55;;;3.38;;
40591;SDS011;26301;42.832;23.918;2023-10-31T01:39:24;7.15;;;4.28;;
40591;SDS011;26301;42.832;23.918;2023-10-31T01:41:49;13.05;;;4.47;;
40591;SDS011;26301;42.832;23.918;2023-10-31T01:44:15;7.20;;;3.85;;
40591;SDS011;26301;42.832;23.918;2023-10-31T01:46:41;9.38;;;3.83;;
40591;SDS011;26301;42.832;23.918;2023-10-31T01:49:06;7.10;;;3.58;;
40591;SDS011;26301;42.832;23.918;2023-10-31T01:51:32;8.68;;;3.45;;
40591;SDS011;26301;42.832;23.918;2023-10-31T01:53:58;6.65;;;2.85;;
40591;SDS011;26301;42.832;23.918;2023-10-31T01:56:24;7.43;;;3.83;;
40591;SDS011;26301;42.832;23.918;2023-10-31T01:58:50;5.75;;;2.92;;
40591;SDS011;26301;42.832;23.918;2023-10-31T02:01:18;7.85;;;3.03;;
40591;SDS011;26301;42.832;23.918;2023-10-31T02:03:44;5.18;;;3.08;;
40591;SDS011;26301;42.832;23.918;2023-10-31T02:06:10;8.93;;;3.40;;
40591;SDS011;26301;42.832;23.918;2023-10-31T02:08:36;10.10;;;3.10;;
40591;SDS011;26301;42.832;23.918;2023-10-31T02:11:02;6.30;;;3.17;;
40591;SDS011;26301;42.832;23.918;2023-10-31T02:13:30;7.15;;;2.78;;
40591;SDS011;26301;42.832;23.918;2023-10-31T02:15:55;10.20;;;3.00;;
40591;SDS011;26301;42.832;23.918;2023-10-31T02:18:21;10.52;;;3.22;;
40591;SDS011;26301;42.832;23.918;2023-10-31T02:20:47;5.13;;;3.10;;
40591;SDS011;26301;42.832;23.918;2023-10-31T02:23:15;3.90;;;2.75;;
40591;SDS011;26301;42.832;23.918;2023-10-31T02:25:41;7.03;;;4.00;;
40591;SDS011;26301;42.832;23.918;2023-10-31T02:28:07;4.35;;;2.65;;
40591;SDS011;26301;42.832;23.918;2023-10-31T02:30:33;6.95;;;2.70;;
40591;SDS011;26301;42.832;23.918;2023-10-31T02:33:02;6.05;;;3.08;;
40591;SDS011;26301;42.832;23.918;2023-10-31T02:35:28;6.80;;;3.15;;
40591;SDS011;26301;42.832;23.918;2023-10-31T02:37:54;4.82;;;3.22;;
40591;SDS011;26301;42.832;23.918;2023-10-31T02:40:20;4.28;;;2.95;;
40591;SDS011;26301;42.832;23.918;2023-10-31T02:42:45;6.00;;;2.95;;
40591;SDS011;26301;42.832;23.918;2023-10-31T02:45:11;6.72;;;3.42;;
40591;SDS011;26301;42.832;23.918;2023-10-31T02:47:37;10.18;;;4.05;;
40591;SDS011;26301;42.832;23.918;2023-10-31T02:50:02;5.93;;;3.22;;
40591;SDS011;26301;42.832;23.918;2023-10-31T02:52:28;6.47;;;2.97;;
40591;SDS011;26301;42.832;23.918;2023-10-31T02:54:54;4.18;;;2.65;;
40591;SDS011;26301;42.832;23.918;2023-10-31T02:57:19;5.95;;;2.78;;
40591;SDS011;26301;42.832;23.918;2023-10-31T02:59:45;6.57;;;3.00;;
40591;SDS011;26301;42.832;23.918;2023-10-31T03:02:11;6.78;;;3.17;;
40591;SDS011;26301;42.832;23.918;2023-10-31T03:04:37;9.57;;;3.38;;
40591;SDS011;26301;42.832;23.918;2023-10-31T03:07:03;6.20;;;3.03;;
40591;SDS011;26301;42.832;23.918;2023-10-31T03:09:29;5.95;;;3.20;;
40591;SDS011;26301;42.832;23.918;2023-10-31T03:11:55;9.38;;;2.88;;
40591;SDS011;26301;42.832;23.918;2023-10-31T03:14:21;7.00;;;2.90;;
40591;SDS011;26301;42.832;23.918;2023-10-31T03:16:47;5.55;;;2.75;;
40591;SDS011;26301;42.832;23.918;2023-10-31T03:19:12;4.90;;;2.78;;
40591;SDS011;26301;42.832;23.918;2023-10-31T03:21:38;6.13;;;2.97;;
40591;SDS011;26301;42.832;23.918;2023-10-31T03:24:04;5.90;;;3.17;;
40591;SDS011;26301;42.832;23.918;2023-10-31T03:26:32;5.63;;;3.00;;
40591;SDS011;26301;42.832;23.918;2023-10-31T03:28:57;8.23;;;3.25;;
40591;SDS011;26301;42.832;23.918;2023-10-31T03:31:23;7.63;;;3.03;;
40591;SDS011;26301;42.832;23.918;2023-10-31T03:33:49;5.85;;;3.28;;
40591;SDS011;26301;42.832;23.918;2023-10-31T03:36:16;5.70;;;3.20;;
40591;SDS011;26301;42.832;23.918;2023-10-31T03:38:42;4.57;;;3.00;;
40591;SDS011;26301;42.832;23.918;2023-10-31T03:41:08;4.03;;;2.60;;
40591;SDS011;26301;42.832;23.918;2023-10-31T03:43:34;9.63;;;3.25;;
40591;SDS011;26301;42.832;23.918;2023-10-31T03:45:59;8.30;;;3.42;;
40591;SDS011;26301;42.832;23.918;2023-10-31T03:48:25;6.85;;;2.95;;
40591;SDS011;26301;42.832;23.918;2023-10-31T03:50:52;5.93;;;2.88;;
40591;SDS011;26301;42.832;23.918;2023-10-31T03:53:17;6.68;;;3.47;;
40591;SDS011;26301;42.832;23.918;2023-10-31T03:55:43;5.35;;;3.00;;
40591;SDS011;26301;42.832;23.918;2023-10-31T03:58:08;4.93;;;3.30;;
40591;SDS011;26301;42.832;23.918;2023-10-31T04:00:34;4.10;;;2.75;;
40591;SDS011;26301;42.832;23.918;2023-10-31T04:03:01;4.25;;;2.78;;
40591;SDS011;26301;42.832;23.918;2023-10-31T04:05:26;10.98;;;3.50;;
40591;SDS011;26301;42.832;23.918;2023-10-31T04:07:52;6.85;;;3.00;;
40591;SDS011;26301;42.832;23.918;2023-10-31T04:10:18;5.00;;;3.30;;
40591;SDS011;26301;42.832;23.918;2023-10-31T04:12:44;4.03;;;2.90;;
40591;SDS011;26301;42.832;23.918;2023-10-31T04:15:10;4.22;;;2.63;;
40591;SDS011;26301;42.832;23.918;2023-10-31T04:17:36;5.05;;;2.80;;
40591;SDS011;26301;42.832;23.918;2023-10-31T04:20:02;4.53;;;3.13;;
40591;SDS011;26301;42.832;23.918;2023-10-31T04:22:29;8.10;;;2.67;;
40591;SDS011;26301;42.832;23.918;2023-10-31T04:24:54;7.07;;;3.13;;
40591;SDS011;26301;42.832;23.918;2023-10-31T04:27:20;8.45;;;3.15;;
40591;SDS011;26301;42.832;23.918;2023-10-31T04:29:45;6.32;;;2.80;;
40591;SDS011;26301;42.832;23.918;2023-10-31T04:32:11;4.95;;;2.63;;
40591;SDS011;26301;42.832;23.918;2023-10-31T04:34:37;3.05;;;2.17;;
40591;SDS011;26301;42.832;23.918;2023-10-31T04:37:03;6.97;;;3.03;;
40591;SDS011;26301;42.832;23.918;2023-10-31T04:39:29;8.45;;;2.95;;
40591;SDS011;26301;42.832;23.918;2023-10-31T04:41:54;6.43;;;2.63;;
40591;SDS011;26301;42.832;23.918;2023-10-31T04:44:20;6.65;;;2.85;;
40591;SDS011;26301;42.832;23.918;2023-10-31T04:46:46;5.03;;;2.60;;
40591;SDS011;26301;42.832;23.918;2023-10-31T04:49:12;6.22;;;2.90;;
40591;SDS011;26301;42.832;23.918;2023-10-31T04:51:38;5.78;;;2.15;;
40591;SDS011;26301;42.832;23.918;2023-10-31T04:54:04;5.57;;;2.40;;
40591;SDS011;26301;42.832;23.918;2023-10-31T04:56:30;4.72;;;2.35;;
40591;SDS011;26301;42.832;23.918;2023-10-31T04:58:56;5.65;;;2.60;;
40591;SDS011;26301;42.832;23.918;2023-10-31T05:01:22;5.38;;;2.38;;
40591;SDS011;26301;42.832;23.918;2023-10-31T05:03:47;3.75;;;2.40;;
40591;SDS011;26301;42.832;23.918;2023-10-31T05:06:18;6.40;;;2.72;;
40591;SDS011;26301;42.832;23.918;2023-10-31T05:08:44;4.07;;;2.30;;
40591;SDS011;26301;42.832;23.918;2023-10-31T05:11:10;8.15;;;2.50;;
40591;SDS011;26301;42.832;23.918;2023-10-31T05:13:37;4.00;;;2.28;;
40591;SDS011;26301;42.832;23.918;2023-10-31T05:16:03;4.55;;;2.58;;
40591;SDS011;26301;42.832;23.918;2023-10-31T05:18:29;7.72;;;2.10;;
40591;SDS011;26301;42.832;23.918;2023-10-31T05:20:55;5.57;;;2.00;;
40591;SDS011;26301;42.832;23.918;2023-10-31T05:23:21;6.55;;;2.42;;
40591;SDS011;26301;42.832;23.918;2023-10-31T05:25:46;3.38;;;1.98;;
40591;SDS011;26301;42.832;23.918;2023-10-31T05:28:12;4.30;;;2.10;;
40591;SDS011;26301;42.832;23.918;2023-10-31T05:30:37;6.95;;;2.10;;
40591;SDS011;26301;42.832;23.918;2023-10-31T05:33:03;4.82;;;2.20;;
40591;SDS011;26301;42.832;23.918;2023-10-31T05:35:29;5.75;;;2.13;;
40591;SDS011;26301;42.832;23.918;2023-10-31T05:37:55;4.68;;;2.15;;
40591;SDS011;26301;42.832;23.918;2023-10-31T05:40:21;4.93;;;2.25;;
40591;SDS011;26301;42.832;23.918;2023-10-31T05:42:50;7.20;;;1.80;;
40591;SDS011;26301;42.832;23.918;2023-10-31T05:45:15;3.33;;;1.60;;
40591;SDS011;26301;42.832;23.918;2023-10-31T05:47:41;5.25;;;1.88;;
40591;SDS011;26301;42.832;23.918;2023-10-31T05:50:07;4.03;;;1.70;;
40591;SDS011;26301;42.832;23.918;2023-10-31T05:52:33;3.42;;;1.63;;
40591;SDS011;26301;42.832;23.918;2023-10-31T05:54:59;4.05;;;1.73;;
40591;SDS011;26301;42.832;23.918;2023-10-31T05:57:25;5.07;;;2.05;;
40591;SDS011;26301;42.832;23.918;2023-10-31T05:59:50;3.42;;;1.42;;
40591;SDS011;26301;42.832;23.918;2023-10-31T06:02:16;3.63;;;1.77;;
40591;SDS011;26301;42.832;23.918;2023-10-31T06:04:41;5.40;;;1.60;;
40591;SDS011;26301;42.832;23.918;2023-10-31T06:07:07;3.63;;;1.52;;
40591;SDS011;26301;42.832;23.918;2023-10-31T06:09:33;3.90;;;1.90;;
40591;SDS011;26301;42.832;23.918;2023-10-31T06:11:59;4.18;;;1.80;;
40591;SDS011;26301;42.832;23.918;2023-10-31T06:14:25;3.40;;;1.50;;
40591;SDS011;26301;42.832;23.918;2023-10-31T06:16:51;5.68;;;1.95;;
40591;SDS011;26301;42.832;23.918;2023-10-31T06:19:17;5.57;;;1.42;;
40591;SDS011;26301;42.832;23.918;2023-10-31T06:21:43;2.38;;;1.50;;
40591;SDS011;26301;42.832;23.918;2023-10-31T06:24:08;2.95;;;1.30;;
40591;SDS011;26301;42.832;23.918;2023-10-31T06:26:34;4.53;;;1.45;;
40591;SDS011;26301;42.832;23.918;2023-10-31T06:29:00;3.90;;;1.35;;
40591;SDS011;26301;42.832;23.918;2023-10-31T06:31:26;3.35;;;1.38;;
40591;SDS011;26301;42.832;23.918;2023-10-31T06:33:52;5.38;;;1.58;;
40591;SDS011;26301;42.832;23.918;2023-10-31T06:36:18;3.95;;;1.50;;
40591;SDS011;26301;42.832;23.918;2023-10-31T06:38:43;3.92;;;1.45;;
40591;SDS011;26301;42.832;23.918;2023-10-31T06:41:09;3.85;;;1.20;;
40591;SDS011;26301;42.832;23.918;2023-10-31T06:43:35;3.47;;;1.45;;
40591;SDS011;26301;42.832;23.918;2023-10-31T06:46:01;4.95;;;1.98;;
40591;SDS011;26301;42.832;23.918;2023-10-31T06:48:28;7.68;;;2.30;;
40591;SDS011;26301;42.832;23.918;2023-10-31T06:50:53;5.00;;;2.17;;
40591;SDS011;26301;42.832;23.918;2023-10-31T06:53:19;7.93;;;2.53;;
40591;SDS011;26301;42.832;23.918;2023-10-31T06:55:45;8.27;;;2.22;;
40591;SDS011;26301;42.832;23.918;2023-10-31T06:58:10;3.05;;;1.60;;
40591;SDS011;26301;42.832;23.918;2023-10-31T07:00:36;5.05;;;1.70;;
40591;SDS011;26301;42.832;23.918;2023-10-31T07:03:03;5.22;;;1.73;;
40591;SDS011;26301;42.832;23.918;2023-10-31T07:05:33;3.65;;;1.40;;
40591;SDS011;26301;42.832;23.918;2023-10-31T07:08:00;2.97;;;1.33;;
40591;SDS011;26301;42.832;23.918;2023-10-31T07:10:25;2.85;;;1.38;;
40591;SDS011;26301;42.832;23.918;2023-10-31T07:12:51;4.93;;;1.40;;
40591;SDS011;26301;42.832;23.918;2023-10-31T07:15:17;6.35;;;2.83;;
40591;SDS011;26301;42.832;23.918;2023-10-31T07:17:43;3.30;;;1.55;;
40591;SDS011;26301;42.832;23.918;2023-10-31T07:20:08;3.08;;;1.60;;
40591;SDS011;26301;42.832;23.918;2023-10-31T07:22:34;4.68;;;1.52;;
40591;SDS011;26301;42.832;23.918;2023-10-31T07:25:00;4.32;;;1.33;;
40591;SDS011;26301;42.832;23.918;2023-10-31T07:27:28;4.85;;;1.25;;
40591;SDS011;26301;42.832;23.918;2023-10-31T07:29:54;2.92;;;1.05;;
40591;SDS011;26301;42.832;23.918;2023-10-31T07:32:20;3.22;;;1.27;;
40591;SDS011;26301;42.832;23.918;2023-10-31T07:34:46;3.22;;;1.30;;
40591;SDS011;26301;42.832;23.918;2023-10-31T07:37:11;4.65;;;1.70;;
40591;SDS011;26301;42.832;23.918;2023-10-31T07:39:37;5.45;;;1.48;;
40591;SDS011;26301;42.832;23.918;2023-10-31T07:42:03;4.75;;;1.20;;
40591;SDS011;26301;42.832;23.918;2023-10-31T07:44:29;4.43;;;1.75;;
40591;SDS011;26301;42.832;23.918;2023-10-31T07:46:55;4.25;;;1.20;;
40591;SDS011;26301;42.832;23.918;2023-10-31T07:49:20;2.35;;;0.88;;
40591;SDS011;26301;42.832;23.918;2023-10-31T07:51:47;5.35;;;1.92;;
40591;SDS011;26301;42.832;23.918;2023-10-31T07:54:14;4.35;;;1.15;;
40591;SDS011;26301;42.832;23.918;2023-10-31T07:56:41;5.28;;;1.52;;
40591;SDS011;26301;42.832;23.918;2023-10-31T07:59:06;4.40;;;1.23;;
40591;SDS011;26301;42.832;23.918;2023-10-31T08:01:33;3.33;;;1.35;;
40591;SDS011;26301;42.832;23.918;2023-10-31T08:03:59;2.30;;;1.05;;
40591;SDS011;26301;42.832;23.918;2023-10-31T08:06:24;3.80;;;1.10;;
40591;SDS011;26301;42.832;23.918;2023-10-31T08:08:50;5.32;;;1.75;;
40591;SDS011;26301;42.832;23.918;2023-10-31T08:11:16;4.70;;;1.25;;
40591;SDS011;26301;42.832;23.918;2023-10-31T08:13:42;4.80;;;1.20;;
40591;SDS011;26301;42.832;23.918;2023-10-31T08:16:08;3.03;;;1.13;;
40591;SDS011;26301;42.832;23.918;2023-10-31T08:18:34;5.25;;;1.92;;
40591;SDS011;26301;42.832;23.918;2023-10-31T08:21:00;3.00;;;0.90;;
40591;SDS011;26301;42.832;23.918;2023-10-31T08:23:28;3.95;;;1.00;;
40591;SDS011;26301;42.832;23.918;2023-10-31T08:25:54;2.60;;;0.95;;
40591;SDS011;26301;42.832;23.918;2023-10-31T08:28:19;3.72;;;1.45;;
40591;SDS011;26301;42.832;23.918;2023-10-31T08:30:45;2.95;;;0.88;;
40591;SDS011;26301;42.832;23.918;2023-10-31T08:33:11;1.92;;;0.68;;
40591;SDS011;26301;42.832;23.918;2023-10-31T08:35:37;5.00;;;1.05;;
40591;SDS011;26301;42.832;23.918;2023-10-31T08:38:03;3.30;;;1.10;;
40591;SDS011;26301;42.832;23.918;2023-10-31T08:40:29;3.70;;;1.25;;
40591;SDS011;26301;42.832;23.918;2023-10-31T08:42:55;4.10;;;1.08;;
40591;SDS011;26301;42.832;23.918;2023-10-31T08:45:20;3.92;;;1.30;;
40591;SDS011;26301;42.832;23.918;2023-10-31T08:47:46;3.95;;;1.10;;
40591;SDS011;26301;42.832;23.918;2023-10-31T08:50:12;2.22;;;0.73;;
40591;SDS011;26301;42.832;23.918;2023-10-31T08:52:39;3.72;;;0.82;;
40591;SDS011;26301;42.832;23.918;2023-10-31T08:55:05;5.28;;;1.08;;
40591;SDS011;26301;42.832;23.918;2023-10-31T08:57:31;1.75;;;0.90;;
40591;SDS011;26301;42.832;23.918;2023-10-31T08:59:59;1.75;;;0.80;;
40591;SDS011;26301;42.832;23.918;2023-10-31T09:02:24;3.65;;;0.68;;
40591;SDS011;26301;42.832;23.918;2023-10-31T09:04:51;2.40;;;0.80;;
40591;SDS011;26301;42.832;23.918;2023-10-31T09:07:16;3.40;;;0.73;;
40591;SDS011;26301;42.832;23.918;2023-10-31T09:09:42;1.30;;;0.60;;
40591;SDS011;26301;42.832;23.918;2023-10-31T09:12:08;1.60;;;0.70;;
40591;SDS011;26301;42.832;23.918;2023-10-31T09:14:34;2.85;;;0.80;;
40591;SDS011;26301;42.832;23.918;2023-10-31T09:17:00;5.63;;;0.85;;
40591;SDS011;26301;42.832;23.918;2023-10-31T09:19:27;2.03;;;0.98;;
40591;SDS011;26301;42.832;23.918;2023-10-31T09:21:54;3.10;;;0.73;;
40591;SDS011;26301;42.832;23.918;2023-10-31T09:24:20;1.25;;;0.82;;
40591;SDS011;26301;42.832;23.918;2023-10-31T09:26:47;2.95;;;0.65;;
40591;SDS011;26301;42.832;23.918;2023-10-31T09:29:12;2.28;;;0.73;;
40591;SDS011;26301;42.832;23.918;2023-10-31T09:31:39;3.05;;;0.70;;
40591;SDS011;26301;42.832;23.918;2023-10-31T09:34:04;3.53;;;0.80;;
40591;SDS011;26301;42.832;23.918;2023-10-31T09:36:33;1.58;;;0.70;;
40591;SDS011;26301;42.832;23.918;2023-10-31T09:39:02;2.00;;;0.75;;
40591;SDS011;26301;42.832;23.918;2023-10-31T09:41:28;3.47;;;0.93;;
40591;SDS011;26301;42.832;23.918;2023-10-31T09:43:55;3.42;;;0.80;;
40591;SDS011;26301;42.832;23.918;2023-10-31T09:46:21;5.82;;;1.13;;
40591;SDS011;26301;42.832;23.918;2023-10-31T09:48:47;2.47;;;0.93;;
40591;SDS011;26301;42.832;23.918;2023-10-31T09:51:15;1.20;;;0.75;;
40591;SDS011;26301;42.832;23.918;2023-10-31T09:53:41;2.47;;;0.90;;
40591;SDS011;26301;42.832;23.918;2023-10-31T09:56:12;2.90;;;0.93;;
40591;SDS011;26301;42.832;23.918;2023-10-31T09:58:39;1.70;;;0.75;;
40591;SDS011;26301;42.832;23.918;2023-10-31T10:01:06;3.17;;;0.60;;
40591;SDS011;26301;42.832;23.918;2023-10-31T10:03:32;1.25;;;0.60;;
40591;SDS011;26301;42.832;23.918;2023-10-31T10:05:58;3.78;;;1.10;;
40591;SDS011;26301;42.832;23.918;2023-10-31T10:08:24;1.50;;;0.95;;
40591;SDS011;26301;42.832;23.918;2023-10-31T10:10:50;3.10;;;0.75;;
40591;SDS011;26301;42.832;23.918;2023-10-31T10:13:22;3.22;;;0.75;;
40591;SDS011;26301;42.832;23.918;2023-10-31T10:15:48;2.47;;;0.80;;
40591;SDS011;26301;42.832;23.918;2023-10-31T10:18:36;3.38;;;0.80;;
40591;SDS011;26301;42.832;23.918;2023-10-31T10:21:06;2.17;;;0.70;;
40591;SDS011;26301;42.832;23.918;2023-10-31T10:23:33;1.77;;;0.73;;
40591;SDS011;26301;42.832;23.918;2023-10-31T10:25:59;10.10;;;0.80;;
40591;SDS011;26301;42.832;23.918;2023-10-31T10:28:28;9.13;;;0.90;;
40591;SDS011;26301;42.832;23.918;2023-10-31T10:30:58;2.10;;;0.80;;
40591;SDS011;26301;42.832;23.918;2023-10-31T10:33:24;1.73;;;0.70;;
40591;SDS011;26301;42.832;23.918;2023-10-31T10:35:49;1.27;;;0.80;;
40591;SDS011;26301;42.832;23.918;2023-10-31T10:38:16;2.20;;;0.68;;
40591;SDS011;26301;42.832;23.918;2023-10-31T10:40:46;4.57;;;1.17;;
40591;SDS011;26301;42.832;23.918;2023-10-31T10:45:49;2.47;;;0.80;;
40591;SDS011;26301;42.832;23.918;2023-10-31T10:48:23;2.53;;;0.80;;
40591;SDS011;26301;42.832;23.918;2023-10-31T10:50:51;4.45;;;0.88;;
40591;SDS011;26301;42.832;23.918;2023-10-31T10:53:35;5.40;;;0.98;;
40591;SDS011;26301;42.832;23.918;2023-10-31T10:56:13;2.67;;;0.90;;
40591;SDS011;26301;42.832;23.918;2023-10-31T11:01:29;3.70;;;1.00;;
40591;SDS011;26301;42.832;23.918;2023-10-31T11:03:56;2.70;;;0.82;;
40591;SDS011;26301;42.832;23.918;2023-10-31T11:06:22;3.65;;;1.58;;
40591;SDS011;26301;42.832;23.918;2023-10-31T11:08:48;3.60;;;1.00;;
40591;SDS011;26301;42.832;23.918;2023-10-31T11:11:17;1.63;;;0.82;;
40591;SDS011;26301;42.832;23.918;2023-10-31T11:13:44;3.50;;;0.90;;
40591;SDS011;26301;42.832;23.918;2023-10-31T11:16:13;1.50;;;0.77;;
40591;SDS011;26301;42.832;23.918;2023-10-31T11:18:44;4.00;;;1.20;;
40591;SDS011;26301;42.832;23.918;2023-10-31T11:21:10;2.47;;;0.90;;
40591;SDS011;26301;42.832;23.918;2023-10-31T11:23:36;2.90;;;1.15;;
40591;SDS011;26301;42.832;23.918;2023-10-31T11:26:02;1.67;;;0.80;;
40591;SDS011;26301;42.832;23.918;2023-10-31T11:28:27;2.35;;;0.90;;
40591;SDS011;26301;42.832;23.918;2023-10-31T11:30:53;3.60;;;1.13;;
40591;SDS011;26301;42.832;23.918;2023-10-31T11:33:24;2.65;;;0.95;;
40591;SDS011;26301;42.832;23.918;2023-10-31T11:35:59;2.50;;;1.00;;
40591;SDS011;26301;42.832;23.918;2023-10-31T11:38:34;3.55;;;1.05;;
40591;SDS011;26301;42.832;23.918;2023-10-31T11:41:02;2.70;;;0.88;;
40591;SDS011;26301;42.832;23.918;2023-10-31T11:46:04;2.67;;;0.93;;
40591;SDS011;26301;42.832;23.918;2023-10-31T11:48:45;3.10;;;1.30;;
40591;SDS011;26301;42.832;23.918;2023-10-31T11:51:13;6.47;;;1.20;;
40591;SDS011;26301;42.832;23.918;2023-10-31T11:53:39;2.47;;;0.90;;
40591;SDS011;26301;42.832;23.918;2023-10-31T11:56:05;4.65;;;1.25;;
40591;SDS011;26301;42.832;23.918;2023-10-31T11:58:31;2.15;;;0.98;;
40591;SDS011;26301;42.832;23.918;2023-10-31T12:01:03;3.10;;;1.20;;
40591;SDS011;26301;42.832;23.918;2023-10-31T12:03:40;2.40;;;1.25;;
40591;SDS011;26301;42.832;23.918;2023-10-31T12:06:11;4.18;;;0.98;;
40591;SDS011;26301;42.832;23.918;2023-10-31T12:08:38;3.03;;;0.95;;
40591;SDS011;26301;42.832;23.918;2023-10-31T12:11:08;2.08;;;1.08;;
40591;SDS011;26301;42.832;23.918;2023-10-31T12:13:35;3.33;;;0.93;;
40591;SDS011;26301;42.832;23.918;2023-10-31T12:16:07;1.33;;;1.00;;
40591;SDS011;26301;42.832;23.918;2023-10-31T12:18:35;4.75;;;1.35;;
40591;SDS011;26301;42.832;23.918;2023-10-31T12:21:01;5.30;;;1.40;;
40591;SDS011;26301;42.832;23.918;2023-10-31T12:23:28;2.05;;;0.90;;
40591;SDS011;26301;42.832;23.918;2023-10-31T12:25:54;3.90;;;1.00;;
40591;SDS011;26301;42.832;23.918;2023-10-31T12:28:20;2.13;;;1.10;;
40591;SDS011;26301;42.832;23.918;2023-10-31T12:30:47;2.83;;;1.10;;
40591;SDS011;26301;42.832;23.918;2023-10-31T12:33:14;7.47;;;1.20;;
40591;SDS011;26301;42.832;23.918;2023-10-31T12:35:41;6.95;;;1.30;;
40591;SDS011;26301;42.832;23.918;2023-10-31T12:38:11;8.05;;;1.20;;
40591;SDS011;26301;42.832;23.918;2023-10-31T12:40:38;3.40;;;1.20;;
40591;SDS011;26301;42.832;23.918;2023-10-31T12:43:06;2.35;;;0.93;;
40591;SDS011;26301;42.832;23.918;2023-10-31T12:45:32;4.35;;;1.70;;
40591;SDS011;26301;42.832;23.918;2023-10-31T12:50:31;1.90;;;1.10;;
40591;SDS011;26301;42.832;23.918;2023-10-31T12:52:58;4.93;;;1.20;;
40591;SDS011;26301;42.832;23.918;2023-10-31T12:55:25;4.95;;;1.30;;
40591;SDS011;26301;42.832;23.918;2023-10-31T12:57:52;2.60;;;1.05;;
40591;SDS011;26301;42.832;23.918;2023-10-31T13:00:19;4.25;;;1.80;;
40591;SDS011;26301;42.832;23.918;2023-10-31T13:03:00;3.03;;;1.10;;
40591;SDS011;26301;42.832;23.918;2023-10-31T13:05:30;3.65;;;1.08;;
40591;SDS011;26301;42.832;23.918;2023-10-31T13:07:56;4.57;;;1.65;;
40591;SDS011;26301;42.832;23.918;2023-10-31T13:10:25;3.45;;;1.30;;
40591;SDS011;26301;42.832;23.918;2023-10-31T13:12:52;4.78;;;1.30;;
40591;SDS011;26301;42.832;23.918;2023-10-31T13:15:21;9.18;;;1.45;;
40591;SDS011;26301;42.832;23.918;2023-10-31T13:17:49;6.70;;;1.10;;
40591;SDS011;26301;42.832;23.918;2023-10-31T13:20:16;4.22;;;1.20;;
40591;SDS011;26301;42.832;23.918;2023-10-31T13:22:43;3.20;;;1.30;;
40591;SDS011;26301;42.832;23.918;2023-10-31T13:25:10;3.05;;;1.10;;
40591;SDS011;26301;42.832;23.918;2023-10-31T13:27:37;3.10;;;1.30;;
40591;SDS011;26301;42.832;23.918;2023-10-31T13:30:06;3.50;;;1.10;;
40591;SDS011;26301;42.832;23.918;2023-10-31T13:32:42;3.17;;;1.08;;
40591;SDS011;26301;42.832;23.918;2023-10-31T13:35:09;3.10;;;1.00;;
40591;SDS011;26301;42.832;23.918;2023-10-31T13:37:35;2.88;;;1.10;;
40591;SDS011;26301;42.832;23.918;2023-10-31T13:40:02;6.00;;;1.00;;
40591;SDS011;26301;42.832;23.918;2023-10-31T13:42:28;7.25;;;1.48;;
40591;SDS011;26301;42.832;23.918;2023-10-31T13:44:54;2.85;;;1.17;;
40591;SDS011;26301;42.832;23.918;2023-10-31T13:47:19;6.35;;;1.27;;
40591;SDS011;26301;42.832;23.918;2023-10-31T13:49:46;6.85;;;1.25;;
40591;SDS011;26301;42.832;23.918;2023-10-31T13:52:12;4.30;;;1.20;;
40591;SDS011;26301;42.832;23.918;2023-10-31T13:54:38;4.50;;;1.35;;
40591;SDS011;26301;42.832;23.918;2023-10-31T13:57:03;5.93;;;2.10;;
40591;SDS011;26301;42.832;23.918;2023-10-31T13:59:29;6.72;;;1.30;;
40591;SDS011;26301;42.832;23.918;2023-10-31T14:01:55;3.17;;;1.58;;
40591;SDS011;26301;42.832;23.918;2023-10-31T14:04:21;5.00;;;1.40;;
40591;SDS011;26301;42.832;23.918;2023-10-31T14:06:46;5.65;;;1.50;;
40591;SDS011;26301;42.832;23.918;2023-10-31T14:09:13;3.88;;;1.35;;
40591;SDS011;26301;42.832;23.918;2023-10-31T14:11:39;6.50;;;1.83;;
40591;SDS011;26301;42.832;23.918;2023-10-31T14:14:05;4.45;;;1.73;;
40591;SDS011;26301;42.832;23.918;2023-10-31T14:16:35;5.10;;;1.45;;
40591;SDS011;26301;42.832;23.918;2023-10-31T14:19:10;3.83;;;1.50;;
40591;SDS011;26301;42.832;23.918;2023-10-31T14:21:38;5.20;;;1.55;;
40591;SDS011;26301;42.832;23.918;2023-10-31T14:24:05;2.70;;;1.13;;
40591;SDS011;26301;42.832;23.918;2023-10-31T14:26:33;4.60;;;1.38;;
40591;SDS011;26301;42.832;23.918;2023-10-31T14:28:59;4.60;;;1.40;;
40591;SDS011;26301;42.832;23.918;2023-10-31T14:31:25;2.70;;;1.20;;
40591;SDS011;26301;42.832;23.918;2023-10-31T14:33:51;6.38;;;1.13;;
40591;SDS011;26301;42.832;23.918;2023-10-31T14:36:17;3.05;;;1.30;;
40591;SDS011;26301;42.832;23.918;2023-10-31T14:38:43;4.25;;;1.40;;
40591;SDS011;26301;42.832;23.918;2023-10-31T14:41:09;3.30;;;1.25;;